87B weather

Portage Lake Municipal Seaplane Base
Portage Lake, Maine, United States

Public forecast

Using degrees Fahrenheit for public forecast. Weather courtesy of forecast.io.

Closest aviation weather report (METAR) to Portage Lake Municipal Seaplane Base

Closest report is Presque Isle International Airport, 18.4 nm (34.2 km) ESE. Retrieved 2020/08/05 11:56 UTC (44 minutes ago):

KPQI 051156Z AUTO 19012G20KT 10SM FEW017 OVC044 22/19 A2983 RMK AO2 SLP123 60004 70018 T02170189 10217 20189 53020

Closest aviation forecast (TAF) to Portage Lake Municipal Seaplane Base

Closest forecast is Presque Isle International Airport, 18.4 nm (34.2 km) ESE. Retrieved 2020/08/05 12:27 UTC (13 minutes ago):

TAF KPQI 051124Z 0512/0612 19010G20KT P6SM SCT025 BKN040 TEMPO 0512/0514 BKN025 FM051900 22010G20KT P6SM VCSH BKN045 FM060000 23007KT P6SM SCT070